Weather reports worldwide

Advertisment
Lus-La-Croix-Haute, France (7587): temperature & dewpoint: 12.01.2018 06:00:00 - 18.01.2018 06:00:00 (CET)Lus-La-Croix-Haute, France (7587): wind speed & gusts: 12.01.2018 06:00:00 - 18.01.2018 06:00:00 (CET)Lus-La-Croix-Haute, France (7587): wind direction: 12.01.2018 06:00:00 - 18.01.2018 06:00:00 (CET)Lus-La-Croix-Haute, France (7587): precipitation: 12.01.2018 06:00:00 - 18.01.2018 06:00:00 (CET)
Date & Time tt [°C] td [°C] ff [km/h] ff [kn] fx [km/h] fx [kn] dd rr [mm]
18.01.2018 06:00:00 0,3 -5,1 11 6 29 16 NW 0,0
18.01.2018 05:00:00 -0,8 -5,4 11 6 35 19 NW 0,0
18.01.2018 04:00:00 -1,2 -5,2 15 8 28 15 NW 0,0
18.01.2018 03:00:00 -1,6 -5,6 15 8 35 19 NNW 0,0
18.01.2018 02:00:00 -1,3 -5,7 13 7 34 18 NW 0,0
18.01.2018 01:00:00 -0,9 -5,7 13 7 35 19 NNW -
18.01.2018 00:00:00 -0,7 -5,1 13 7 31 17 NNW 0,0
17.01.2018 23:00:00 -0,7 -5,3 13 7 39 21 NNW 0,0
17.01.2018 22:00:00 -0,5 -5,9 15 8 50 27 NNW 0,0
17.01.2018 21:00:00 -0,7 -5,3 18 10 50 27 N 0,2
17.01.2018 20:00:00 -0,6 -5,4 22 12 52 28 N 0,0
17.01.2018 19:00:00 -1,3 -4,3 16 9 48 26 NNW -
17.01.2018 18:00:00 -1,0 -4,4 18 10 44 24 NNW 0,0
17.01.2018 17:00:00 -0,8 -4,9 18 10 42 23 NNW 0,0
17.01.2018 16:00:00 -0,5 -6,3 18 10 72 39 N 0,0
17.01.2018 15:00:00 0,0 -4,6 22 12 61 33 NW 0,2
17.01.2018 14:00:00 -0,5 -3,9 22 12 52 28 NNW 0,6
17.01.2018 13:00:00 -0,8 -3,2 21 11 54 29 NNW -
17.01.2018 12:00:00 -0,3 -4,0 24 13 55 30 NNW 0,2
17.01.2018 11:00:00 -0,9 -3,4 21 11 65 35 NNW 0,2
17.01.2018 10:00:00 -0,3 -4,0 26 14 70 38 NNW 0,0
17.01.2018 09:00:00 0,0 -3,0 26 14 65 35 NNW 0,2
17.01.2018 08:00:00 0,0 -1,9 24 13 57 31 NNW 0,6
17.01.2018 07:00:00 0,3 -1,3 16 9 65 35 NNW -
17.01.2018 06:00:00 0,8 -0,7 22 12 81 44 N 2,0
17.01.2018 05:00:00 2,1 0,9 16 9 52 28 NW 0,2
17.01.2018 04:00:00 3,0 1,2 18 10 54 29 NW 0,6
17.01.2018 03:00:00 5,0 0,2 22 12 70 38 NNW 0,0
17.01.2018 02:00:00 5,8 -0,3 26 14 94 51 NW 0,0
17.01.2018 01:00:00 6,0 1,1 35 19 83 45 NW -
17.01.2018 00:00:00 2,8 2,7 4 2 18 10 ESE 2,0
16.01.2018 23:00:00 2,4 2,3 8 4 13 7 NNE 0,4
16.01.2018 22:00:00 2,3 2,2 5 3 11 6 NE 1,0
16.01.2018 21:00:00 2,5 2,4 5 3 11 6 NNE 0,4
16.01.2018 20:00:00 2,3 2,2 4 2 15 8 W 0,2
16.01.2018 19:00:00 2,0 1,9 5 3 15 8 WSW -
16.01.2018 18:00:00 2,1 1,8 4 2 13 7 WNW 0,2
16.01.2018 17:00:00 2,5 2,2 5 3 11 6 NW 0,2
16.01.2018 16:00:00 2,6 2,3 5 3 15 8 SE 0,0
16.01.2018 15:00:00 2,4 2,1 4 2 9 5 S 0,2
16.01.2018 14:00:00 1,7 1,6 5 3 11 6 NE 0,4
16.01.2018 13:00:00 1,1 1,0 8 4 11 6 NE -
16.01.2018 12:00:00 0,8 0,7 4 2 9 5 NNW 0,4
16.01.2018 11:00:00 0,7 0,6 5 3 11 6 NNE 0,6
16.01.2018 10:00:00 0,6 0,5 4 2 11 6 SSE 0,4
16.01.2018 09:00:00 0,3 0,2 5 3 16 9 N 0,2
16.01.2018 08:00:00 0,1 0,0 2 1 8 4 S 0,6
16.01.2018 07:00:00 0,2 0,1 4 2 8 4 NNE -
16.01.2018 06:00:00 0,1 0,0 4 2 13 7 SW 0,2
16.01.2018 05:00:00 0,1 0,0 2 1 8 4 ESE 0,6
16.01.2018 04:00:00 0,2 0,1 2 1 4 2 ENE 0,8
16.01.2018 03:00:00 0,2 -0,1 2 1 8 4 WNW 0,8
16.01.2018 02:00:00 0,2 -0,1 2 1 5 3 W 1,0
16.01.2018 01:00:00 0,2 -0,1 4 2 8 4 SSE -
16.01.2018 00:00:00 0,2 -0,1 2 1 11 6 S 1,0
15.01.2018 23:00:00 0,2 -0,1 4 2 13 7 S 1,0
15.01.2018 22:00:00 0,4 0,0 8 4 24 13 SE 2,0
15.01.2018 21:00:00 0,5 -0,1 9 5 29 16 SSW 1,0
15.01.2018 20:00:00 1,8 -0,6 9 5 22 12 SSW 0,0
15.01.2018 19:00:00 2,6 -1,6 11 6 24 13 SSW -
15.01.2018 18:00:00 2,5 -1,5 9 5 26 14 SSW 0,0
15.01.2018 17:00:00 2,6 -1,2 15 8 29 16 SW 0,0
15.01.2018 16:00:00 3,1 -1,5 13 7 22 12 SSW 0,0
15.01.2018 15:00:00 3,7 -1,9 13 7 26 14 SSE 0,0
15.01.2018 14:00:00 3,8 -2,0 11 6 24 13 S 0,0
15.01.2018 13:00:00 4,3 -1,7 13 7 22 12 S -
15.01.2018 12:00:00 2,8 -1,4 4 2 9 5 SSE 0,0
15.01.2018 11:00:00 1,3 -1,9 2 1 5 3 NW 0,0
15.01.2018 10:00:00 -0,3 -1,9 2 1 8 4 S 0,0
15.01.2018 09:00:00 -1,6 -2,7 4 2 5 3 N 0,0
15.01.2018 08:00:00 -1,6 -3,2 2 1 4 2 W 0,0
15.01.2018 07:00:00 -1,1 -2,8 2 1 5 3 N -
15.01.2018 06:00:00 -1,3 -2,7 2 1 4 2 NE 0,0
15.01.2018 05:00:00 -1,6 -3,2 4 2 5 3 SE 0,0
15.01.2018 04:00:00 -1,7 -3,3 2 1 4 2 WNW 0,0
15.01.2018 03:00:00 -1,9 -3,6 0 0 5 3 SSE 0,0
15.01.2018 02:00:00 -1,9 -3,6 4 2 8 4 ESE 0,0
15.01.2018 01:00:00 -1,8 -3,5 2 1 8 4 NNW -
15.01.2018 00:00:00 -2,1 -3,7 2 1 5 3 SSE 0,0
14.01.2018 23:00:00 -2,4 -4,1 2 1 5 3 NW 0,0
14.01.2018 22:00:00 -2,4 -4,3 2 1 4 2 W 0,0
14.01.2018 21:00:00 -2,0 -4,2 2 1 5 3 SSE 0,0
14.01.2018 20:00:00 -0,8 -4,2 2 1 5 3 S 0,0
14.01.2018 19:00:00 0,6 -3,7 2 1 5 3 NNW -
14.01.2018 18:00:00 1,6 -4,1 4 2 11 6 SW 0,0
14.01.2018 17:00:00 3,7 -3,6 8 4 16 9 NNW 0,0
14.01.2018 16:00:00 6,7 -3,8 4 2 21 11 W 0,0
14.01.2018 15:00:00 5,7 -5,0 8 4 24 13 SSW 0,0
14.01.2018 14:00:00 5,4 -4,2 9 5 28 15 SSW 0,0
14.01.2018 13:00:00 4,8 -3,7 11 6 24 13 SSW -
14.01.2018 12:00:00 4,3 -3,7 4 2 16 9 SSW 0,0
14.01.2018 11:00:00 2,9 -2,6 4 2 8 4 E 0,0
14.01.2018 10:00:00 1,0 -2,4 2 1 9 5 W 0,0
14.01.2018 09:00:00 0,3 -3,3 4 2 9 5 SSE 0,0
14.01.2018 08:00:00 0,4 -3,3 4 2 11 6 E 0,0
14.01.2018 07:00:00 0,4 -3,0 4 2 9 5 NNE -
14.01.2018 06:00:00 0,1 -2,9 2 1 9 5 NW 0,0
14.01.2018 05:00:00 -0,3 -2,8 4 2 11 6 WNW 0,0
14.01.2018 04:00:00 -0,3 -2,5 4 2 15 8 NW 0,0
14.01.2018 03:00:00 0,0 -2,5 5 3 11 6 N 0,0
14.01.2018 02:00:00 0,2 -2,3 4 2 15 8 E 0,0
14.01.2018 01:00:00 0,4 -2,0 9 5 24 13 SSE -
14.01.2018 00:00:00 0,5 -1,9 5 3 16 9 NE 0,0
13.01.2018 23:00:00 0,3 -1,9 4 2 13 7 SSE 0,0
13.01.2018 22:00:00 0,3 -2,1 4 2 16 9 E 0,0
13.01.2018 21:00:00 1,0 -2,6 9 5 18 10 SSE 0,0
13.01.2018 20:00:00 -0,4 -3,8 4 2 13 7 N 0,0
13.01.2018 19:00:00 1,0 -3,9 5 3 16 9 S -
13.01.2018 18:00:00 1,5 -4,2 8 4 18 10 S 0,0
13.01.2018 17:00:00 3,4 -4,1 8 4 39 21 S 0,0
13.01.2018 16:00:00 6,3 -4,2 16 9 37 20 SSW 0,0
13.01.2018 15:00:00 7,0 -4,4 15 8 34 18 S 0,0
13.01.2018 14:00:00 7,5 -3,4 13 7 28 15 S 0,0
13.01.2018 13:00:00 6,5 -3,2 13 7 28 15 SSW -
13.01.2018 12:00:00 3,6 -1,0 4 2 9 5 SSE 0,0
13.01.2018 11:00:00 -0,4 -1,5 2 1 8 4 NW 0,0
13.01.2018 10:00:00 -3,1 -3,5 2 1 8 4 SW 0,0
13.01.2018 09:00:00 -5,7 -6,4 2 1 4 2 N 0,0
13.01.2018 08:00:00 -5,9 -6,7 2 1 4 2 NNE 0,0
13.01.2018 07:00:00 -5,7 -6,4 2 1 4 2 SW -
13.01.2018 06:00:00 -5,3 -6,0 4 2 5 3 NNW 0,0
13.01.2018 05:00:00 -4,9 -5,4 4 2 4 2 N 0,0
13.01.2018 04:00:00 -4,6 -5,3 0 0 4 2 S 0,0
13.01.2018 03:00:00 -4,3 -5,0 2 1 5 3 SSE 0,0
13.01.2018 02:00:00 -3,9 -4,7 2 1 5 3 NW 0,0
13.01.2018 01:00:00 -3,7 -5,0 4 2 5 3 SE -
13.01.2018 00:00:00 -3,3 -4,6 2 1 5 3 S 0,0
12.01.2018 23:00:00 -2,7 -4,4 2 1 8 4 W 0,0
12.01.2018 22:00:00 -2,0 -4,0 4 2 8 4 ESE 0,0
12.01.2018 21:00:00 -1,7 -4,0 5 3 9 5 ENE 0,0
12.01.2018 20:00:00 -1,1 -3,6 2 1 11 6 NW 0,0
12.01.2018 19:00:00 -0,4 -3,6 4 2 15 8 NNE -
12.01.2018 18:00:00 -0,1 -3,3 8 4 22 12 N 0,0
12.01.2018 17:00:00 1,1 -3,0 9 5 28 15 NNW 0,0
12.01.2018 16:00:00 2,0 -2,2 13 7 34 18 NNW 0,0
12.01.2018 15:00:00 2,5 -2,0 15 8 34 18 NNW 0,0
12.01.2018 14:00:00 2,8 -1,9 16 9 29 16 NNW 0,0
12.01.2018 13:00:00 3,1 -2,0 13 7 35 19 NNW -
12.01.2018 12:00:00 3,1 -2,2 15 8 34 18 NNW 0,0
12.01.2018 11:00:00 2,9 -2,8 11 6 29 16 NNW 0,0
12.01.2018 10:00:00 2,8 -2,1 11 6 31 17 NNW 0,0
12.01.2018 09:00:00 1,6 -2,4 8 4 22 12 N 0,0
12.01.2018 08:00:00 1,5 -2,3 9 5 24 13 NNW 0,0
12.01.2018 07:00:00 1,7 -2,4 13 7 37 20 NNW -
12.01.2018 06:00:00 1,7 -2,4 8 4 26 14 N 0,0

tt = temperature
td = dewpoint
ff = wind speed
fx = gusts
dd = wind direction
rr = precipitation

Next stations